メインページ
METAR-TAF:

METAR-TAF

空港 :

新千歳空港

千歳, 日本

緯度: 42-48N, 経度: 141-40E, 海抜: 27m

現時点の気象観測

当レポートは39分前の11:30(UTC)に作成
北/北東の風 3kt、から東/北東の間で変化する
気温 8°C
湿度 100%
気圧 1012 hPa
視程10km以上
高度300ftの雲はほとんどない
高度5000ftの雲は散在している

METAR: RJCC 161130Z 02003KT 350V060 9999 FEW003 SCT050 08/08 Q1012 RMK 1ST003 4CU050 A2989

時間: 21:09 (12:09 UTC)

予報

当レポートは1時間4分前の11:05(UTC)に作成
予報は16日の 12時(UTC)から 17日の 18時(UTC)まで有効
北西の風 5kt
視程10km以上
高度2000ftの雲はほとんどない
高度4000ftの雲は散在している
16日の 12時(UTC)から 16日の 15時(UTC)まで一時的に
視程: 3000m
高度500ftの千切れ雲あり
高度2500ftの千切れ雲あり
高度2500ftの雲はほとんどない, 積乱雲.
弱いにわか雨, 靄
17日の 09時(UTC)から 17日の 12時(UTC)まで徐々に
の風 5kt

TAF: RJCC 161105Z 1612/1718 31005KT 9999 FEW020 SCT040 TEMPO 1612/1615 3000 -SHRA BR BKN005 BKN025 FEW025CB BECMG 1709/1712 17005KT

4,000以上の空港の気象観測と天気予報(METAR報とTAF報)

利用可能な観測所は地図上に黄色い丸と赤い丸で示す。

丸の上にカーソルを重ねると観測所名を参照できる。

次にクリックすると気象観測と天気予報を参照できる。

マップの切り替え:黒色「×」印の緑ボタンをクリックして拡大、「-」印の緑ボタンをクリックして縮小、緑色の三角印をクリックして隣りの地図に切り替え


METAR-TAF: